createdAt,value
2023-03-15T00:01:24.149Z,4.30
2023-03-15T00:03:50.849Z,3.65
2023-03-15T00:06:17.608Z,3.90
2023-03-15T00:08:47.430Z,3.78
2023-03-15T00:11:17.984Z,5.95
2023-03-15T00:13:45.950Z,4.55
2023-03-15T00:16:17.467Z,5.63
2023-03-15T00:18:48.115Z,3.85
2023-03-15T00:21:15.583Z,5.10
2023-03-15T00:23:42.614Z,2.83
2023-03-15T00:26:09.228Z,5.25
2023-03-15T00:28:35.852Z,6.15
2023-03-15T00:31:09.219Z,3.33
2023-03-15T00:33:35.906Z,4.45
2023-03-15T00:36:05.271Z,6.88
2023-03-15T00:38:33.736Z,4.10
2023-03-15T00:41:17.633Z,3.42
2023-03-15T00:43:45.317Z,4.82
2023-03-15T00:46:13.148Z,5.78
2023-03-15T00:48:40.238Z,4.60
2023-03-15T00:51:13.271Z,3.33
2023-03-15T00:53:42.546Z,6.80
2023-03-15T00:56:12.493Z,4.10
2023-03-15T00:58:39.570Z,3.97
2023-03-15T01:01:13.196Z,4.57
2023-03-15T01:03:40.790Z,3.90
2023-03-15T01:06:10.445Z,3.50
2023-03-15T01:08:37.422Z,3.03
2023-03-15T01:11:06.736Z,3.80
2023-03-15T01:13:34.054Z,4.05
2023-03-15T01:16:00.721Z,2.35
2023-03-15T01:18:27.553Z,5.70
2023-03-15T01:20:54.555Z,5.60
2023-03-15T01:23:21.259Z,3.67
2023-03-15T01:25:48.117Z,4.90
2023-03-15T01:28:14.755Z,3.55
2023-03-15T01:30:49.822Z,3.08
2023-03-15T01:33:16.643Z,2.55
2023-03-15T01:35:43.403Z,3.50
2023-03-15T01:38:10.411Z,4.70
2023-03-15T01:40:42.408Z,2.03
2023-03-15T01:43:08.935Z,2.15
2023-03-15T01:45:57.102Z,4.93
2023-03-15T01:48:29.025Z,3.90
2023-03-15T01:50:57.064Z,3.55
2023-03-15T01:53:27.012Z,6.05
2023-03-15T01:55:54.539Z,6.45
2023-03-15T01:58:25.869Z,3.70
2023-03-15T02:00:53.554Z,4.70
2023-03-15T02:03:27.172Z,5.18
2023-03-15T02:06:04.628Z,4.93
2023-03-15T02:08:36.327Z,2.75
2023-03-15T02:11:04.663Z,3.38
2023-03-15T02:13:33.295Z,6.15
2023-03-15T02:16:00.198Z,4.55
2023-03-15T02:18:26.977Z,5.40
2023-03-15T02:21:13.961Z,5.38
2023-03-15T02:23:40.894Z,4.70
2023-03-15T02:26:19.302Z,4.45
2023-03-15T02:28:46.431Z,5.35
2023-03-15T02:31:14.228Z,5.55
2023-03-15T02:33:47.407Z,4.63
2023-03-15T02:36:23.117Z,4.88
2023-03-15T02:38:50.982Z,4.82
2023-03-15T02:41:38.810Z,6.18
2023-03-15T02:44:10.397Z,5.05
2023-03-15T02:46:38.335Z,7.57
2023-03-15T02:49:08.013Z,5.32
2023-03-15T02:51:34.994Z,5.25
2023-03-15T02:54:01.613Z,4.82
2023-03-15T02:56:28.192Z,5.70
2023-03-15T02:58:54.922Z,5.15
2023-03-15T03:01:21.586Z,7.57
2023-03-15T03:03:48.409Z,5.93
2023-03-15T03:06:17.791Z,5.75
2023-03-15T03:08:47.840Z,7.20
2023-03-15T03:11:15.461Z,6.38
2023-03-15T03:13:42.639Z,12.25
2023-03-15T03:16:09.811Z,6.50
2023-03-15T03:18:36.437Z,7.25
2023-03-15T03:21:05.741Z,6.90
2023-03-15T03:23:33.962Z,6.22
2023-03-15T03:26:01.411Z,7.20
2023-03-15T03:28:31.300Z,10.98
2023-03-15T03:30:58.622Z,7.18
2023-03-15T03:33:25.434Z,6.60
2023-03-15T03:35:52.123Z,7.82
2023-03-15T03:38:18.734Z,6.72
2023-03-15T03:40:46.143Z,6.88
2023-03-15T03:43:12.719Z,8.45
2023-03-15T03:45:39.328Z,6.20
2023-03-15T03:48:06.147Z,7.15
2023-03-15T03:50:32.820Z,8.07
2023-03-15T03:52:59.390Z,8.80
2023-03-15T03:55:26.021Z,9.38
2023-03-15T03:57:55.686Z,9.23
2023-03-15T04:00:22.336Z,12.98
2023-03-15T04:02:49.241Z,10.57
2023-03-15T04:05:16.158Z,8.80
2023-03-15T04:07:42.753Z,8.35
2023-03-15T04:10:14.578Z,6.20
2023-03-15T04:12:43.320Z,9.38
2023-03-15T04:15:11.600Z,8.10
2023-03-15T04:17:39.381Z,9.10
2023-03-15T04:20:07.944Z,10.43
2023-03-15T04:22:34.928Z,10.88
2023-03-15T04:25:01.950Z,7.03
2023-03-15T04:27:29.572Z,10.57
2023-03-15T04:29:56.192Z,9.43
2023-03-15T04:32:23.818Z,11.02
2023-03-15T04:34:55.844Z,11.32
2023-03-15T04:37:22.512Z,10.13
2023-03-15T04:39:49.118Z,13.75
2023-03-15T04:42:15.701Z,9.77
2023-03-15T04:44:42.277Z,9.30
2023-03-15T04:47:09.178Z,10.48
2023-03-15T04:49:35.864Z,8.52
2023-03-15T04:52:02.491Z,12.02
2023-03-15T04:54:29.144Z,14.68
2023-03-15T04:56:55.917Z,11.40
2023-03-15T04:59:22.536Z,11.93
2023-03-15T05:01:49.238Z,12.13
2023-03-15T05:04:16.415Z,12.75
2023-03-15T05:06:43.022Z,9.30
2023-03-15T05:09:09.636Z,13.52
2023-03-15T05:11:36.213Z,12.98
2023-03-15T05:14:03.054Z,10.40
2023-03-15T05:16:29.661Z,11.95
2023-03-15T05:18:57.130Z,11.50
2023-03-15T05:21:23.791Z,8.48
2023-03-15T05:23:50.554Z,10.55
2023-03-15T05:26:17.556Z,10.55
2023-03-15T05:28:45.230Z,9.30
2023-03-15T05:31:12.050Z,11.75
2023-03-15T05:33:40.541Z,9.27
2023-03-15T05:36:07.491Z,8.77
2023-03-15T05:38:34.090Z,12.00
2023-03-15T05:41:01.877Z,9.40
2023-03-15T05:43:28.449Z,8.23
2023-03-15T05:45:55.155Z,8.73
2023-03-15T05:48:21.751Z,8.27
2023-03-15T05:50:48.340Z,11.00
2023-03-15T05:53:14.897Z,7.88
2023-03-15T05:55:41.673Z,9.05
2023-03-15T05:58:08.278Z,10.40
2023-03-15T06:00:34.942Z,8.40
2023-03-15T06:03:01.702Z,8.32
2023-03-15T06:05:28.494Z,13.30
2023-03-15T06:07:55.168Z,6.97
2023-03-15T06:10:22.090Z,6.90
2023-03-15T06:12:50.167Z,8.68
2023-03-15T06:15:17.251Z,7.63
2023-03-15T06:17:43.828Z,6.90
2023-03-15T06:20:11.176Z,11.93
2023-03-15T06:22:38.273Z,5.97
2023-03-15T06:25:05.322Z,6.47
2023-03-15T06:27:31.924Z,5.80
2023-03-15T06:29:58.647Z,8.13
2023-03-15T06:32:25.448Z,10.10
2023-03-15T06:34:52.182Z,9.45
2023-03-15T06:37:28.908Z,7.18
2023-03-15T06:39:59.457Z,9.60
2023-03-15T06:42:26.134Z,8.27
2023-03-15T06:44:52.808Z,7.40
2023-03-15T06:47:19.432Z,10.88
2023-03-15T06:49:50.227Z,9.07
2023-03-15T06:52:17.985Z,6.95
2023-03-15T06:54:44.621Z,7.60
2023-03-15T06:57:11.448Z,9.00
2023-03-15T06:59:38.088Z,7.65
2023-03-15T07:02:04.839Z,8.02
2023-03-15T07:04:31.588Z,8.68
2023-03-15T07:06:58.215Z,8.15
2023-03-15T07:09:24.849Z,7.00
2023-03-15T07:11:51.405Z,7.15
2023-03-15T07:14:17.993Z,6.50
2023-03-15T07:16:44.579Z,6.07
2023-03-15T07:19:11.169Z,8.07
2023-03-15T07:21:37.873Z,7.18
2023-03-15T07:24:04.846Z,8.13
2023-03-15T07:26:31.498Z,10.18
2023-03-15T07:28:58.152Z,9.63
2023-03-15T07:31:24.944Z,8.80
2023-03-15T07:33:51.495Z,9.20
2023-03-15T07:36:18.078Z,6.72
2023-03-15T07:38:44.715Z,6.97
2023-03-15T07:41:11.517Z,6.10
2023-03-15T07:43:38.113Z,5.88
2023-03-15T07:46:05.268Z,6.28
2023-03-15T07:48:31.938Z,5.65
2023-03-15T07:50:58.920Z,7.05
2023-03-15T07:53:26.050Z,8.68
2023-03-15T07:55:52.817Z,6.88
2023-03-15T07:58:20.457Z,6.88
2023-03-15T08:00:47.826Z,9.18
2023-03-15T08:03:14.500Z,8.25
2023-03-15T08:05:41.204Z,5.82
2023-03-15T08:08:07.940Z,9.57
2023-03-15T08:10:34.570Z,5.93
2023-03-15T08:13:01.246Z,6.95
2023-03-15T08:15:27.874Z,7.75
2023-03-15T08:17:54.520Z,8.52
2023-03-15T08:20:21.181Z,8.68
2023-03-15T08:22:49.365Z,8.75
2023-03-15T08:25:20.098Z,8.65
2023-03-15T08:27:47.155Z,9.48
2023-03-15T08:30:15.793Z,7.22
2023-03-15T08:32:44.668Z,5.82
2023-03-15T08:35:15.834Z,9.32
2023-03-15T08:37:47.740Z,7.97
2023-03-15T08:40:16.342Z,8.43
2023-03-15T08:42:42.987Z,7.45
2023-03-15T08:45:10.399Z,8.23
2023-03-15T08:47:37.778Z,5.35
2023-03-15T08:50:07.509Z,8.25
2023-03-15T08:52:34.386Z,8.00
2023-03-15T08:55:01.168Z,8.05
2023-03-15T08:57:28.898Z,9.85
2023-03-15T08:59:56.125Z,8.55
2023-03-15T09:02:23.481Z,8.55
2023-03-15T09:04:52.390Z,6.97
2023-03-15T09:07:21.743Z,9.48
2023-03-15T09:09:49.054Z,7.50
2023-03-15T09:12:16.629Z,7.45
2023-03-15T09:14:43.719Z,10.07
2023-03-15T09:17:11.165Z,7.10
2023-03-15T09:19:38.313Z,7.45
2023-03-15T09:22:16.367Z,5.07
2023-03-15T09:24:43.712Z,8.15
2023-03-15T09:27:11.728Z,8.18
2023-03-15T09:29:38.620Z,9.35
2023-03-15T09:32:05.498Z,9.48
2023-03-15T09:34:39.897Z,8.70
2023-03-15T09:37:08.497Z,5.80
2023-03-15T09:39:35.101Z,6.78
2023-03-15T09:42:04.746Z,5.47
2023-03-15T09:44:48.319Z,6.18
2023-03-15T09:47:21.126Z,9.82
2023-03-15T09:50:16.538Z,8.95
2023-03-15T09:53:11.571Z,5.05
2023-03-15T09:55:39.401Z,4.72
2023-03-15T09:58:13.847Z,9.63
2023-03-15T10:00:54.401Z,7.47
2023-03-15T10:03:44.374Z,10.63
2023-03-15T10:06:18.534Z,3.53
2023-03-15T10:08:47.231Z,8.32
2023-03-15T10:11:19.870Z,6.43
2023-03-15T10:14:18.624Z,6.90
2023-03-15T10:16:50.954Z,6.57
2023-03-15T10:19:53.048Z,7.95
2023-03-15T10:22:31.827Z,5.38
2023-03-15T10:25:26.187Z,5.40
2023-03-15T10:27:56.008Z,8.75
2023-03-15T10:30:29.236Z,5.70
2023-03-15T10:33:05.714Z,5.78
2023-03-15T10:35:32.889Z,6.15
2023-03-15T10:37:59.798Z,2.80
2023-03-15T10:40:52.571Z,6.30
2023-03-15T10:43:26.409Z,9.60
2023-03-15T10:46:05.034Z,8.00
2023-03-15T10:48:37.561Z,2.72
2023-03-15T10:51:19.091Z,5.68
2023-03-15T10:53:56.797Z,6.13
2023-03-15T10:56:26.842Z,4.35
2023-03-15T10:59:11.501Z,6.50
2023-03-15T11:01:39.672Z,4.40
2023-03-15T11:04:19.256Z,4.47
2023-03-15T11:06:49.597Z,6.38
2023-03-15T11:09:23.685Z,7.15
2023-03-15T11:11:57.854Z,4.68
2023-03-15T11:14:25.434Z,5.95
2023-03-15T11:16:55.369Z,7.10
2023-03-15T11:19:26.753Z,4.57
2023-03-15T11:21:53.707Z,5.13
2023-03-15T11:24:34.236Z,4.50
2023-03-15T11:27:04.275Z,3.78
2023-03-15T11:29:33.615Z,5.22
2023-03-15T11:32:03.572Z,4.20
2023-03-15T11:35:04.642Z,5.22
2023-03-15T11:37:37.357Z,5.78
2023-03-15T11:40:23.619Z,3.93
2023-03-15T11:42:56.327Z,3.10
2023-03-15T11:45:50.650Z,5.20
2023-03-15T11:48:26.761Z,3.05
2023-03-15T11:50:57.361Z,3.92
2023-03-15T11:53:30.918Z,4.15
2023-03-15T11:56:19.571Z,4.57
2023-03-15T11:59:10.743Z,2.45
2023-03-15T12:01:37.899Z,5.57
2023-03-15T12:04:25.554Z,3.13
2023-03-15T12:06:57.753Z,4.25
2023-03-15T12:09:33.297Z,4.18
2023-03-15T12:12:04.864Z,4.03
2023-03-15T12:14:36.872Z,5.57
2023-03-15T12:17:37.737Z,3.67
2023-03-15T12:20:19.574Z,3.65
2023-03-15T12:23:02.762Z,4.75
2023-03-15T12:25:45.402Z,4.55
2023-03-15T12:28:39.757Z,5.53
2023-03-15T12:31:12.934Z,3.75
2023-03-15T12:33:54.937Z,2.63
2023-03-15T12:36:36.907Z,2.90
2023-03-15T12:39:37.680Z,6.57
2023-03-15T12:42:05.024Z,2.88
2023-03-15T12:44:31.777Z,2.90
2023-03-15T12:47:01.157Z,4.03
2023-03-15T12:49:29.667Z,3.05
2023-03-15T12:51:58.174Z,2.72
2023-03-15T12:54:34.037Z,3.70
2023-03-15T12:57:04.105Z,3.95
2023-03-15T12:59:37.159Z,3.78
2023-03-15T13:02:32.482Z,4.03
2023-03-15T13:05:20.158Z,3.33
2023-03-15T13:08:09.216Z,2.80
2023-03-15T13:10:52.595Z,3.92
2023-03-15T13:13:58.337Z,4.38
2023-03-15T13:16:44.892Z,4.45
2023-03-15T13:19:14.560Z,6.70
2023-03-15T13:22:06.238Z,7.55
2023-03-15T13:25:04.524Z,3.90
2023-03-15T13:27:52.343Z,3.88
2023-03-15T13:30:34.787Z,4.15
2023-03-15T13:33:11.174Z,5.35
2023-03-15T13:35:46.370Z,3.67
2023-03-15T13:38:49.998Z,4.55
2023-03-15T13:41:29.045Z,3.53
2023-03-15T13:43:58.471Z,4.10
2023-03-15T13:46:27.253Z,3.63
2023-03-15T13:48:55.024Z,3.95
2023-03-15T13:51:36.290Z,3.13
2023-03-15T13:54:11.408Z,4.85
2023-03-15T13:56:58.458Z,2.60
2023-03-15T13:59:32.636Z,3.15
2023-03-15T14:02:02.664Z,2.53
2023-03-15T14:04:31.568Z,3.70
2023-03-15T14:07:25.859Z,2.60
2023-03-15T14:10:26.262Z,3.05
2023-03-15T14:12:54.074Z,3.72
2023-03-15T14:15:33.965Z,3.67
2023-03-15T14:18:07.792Z,3.20
2023-03-15T14:20:43.075Z,4.63
2023-03-15T14:23:12.840Z,3.88
2023-03-15T14:25:39.623Z,3.35
2023-03-15T14:28:07.205Z,4.25
2023-03-15T14:30:37.276Z,4.43
2023-03-15T14:33:07.422Z,4.95
2023-03-15T14:35:36.879Z,3.83
2023-03-15T14:38:22.639Z,4.30
2023-03-15T14:40:51.695Z,3.75
2023-03-15T14:43:18.689Z,4.35
2023-03-15T14:45:47.787Z,3.13
2023-03-15T14:48:31.900Z,5.30
2023-03-15T14:50:58.545Z,5.47
2023-03-15T14:53:27.790Z,3.67
2023-03-15T14:55:54.445Z,3.92
2023-03-15T14:58:22.294Z,4.80
2023-03-15T15:00:52.290Z,3.13
2023-03-15T15:03:31.826Z,3.53
2023-03-15T15:05:59.700Z,5.93
2023-03-15T15:08:26.503Z,4.22
2023-03-15T15:10:56.066Z,4.25
2023-03-15T15:13:28.261Z,3.25
2023-03-15T15:15:56.794Z,4.47
2023-03-15T15:18:28.988Z,3.90
2023-03-15T15:20:58.162Z,3.20
2023-03-15T15:23:31.173Z,3.78
2023-03-15T15:26:04.874Z,10.25
2023-03-15T15:28:36.521Z,3.92
2023-03-15T15:31:06.122Z,2.75
2023-03-15T15:33:34.266Z,5.22
2023-03-15T15:36:01.075Z,6.05
2023-03-15T15:38:33.123Z,3.58
2023-03-15T15:40:59.848Z,4.18
2023-03-15T15:43:26.594Z,3.33
2023-03-15T15:45:53.252Z,3.58
2023-03-15T15:48:19.970Z,6.25
2023-03-15T15:50:46.603Z,3.90
2023-03-15T15:53:17.050Z,4.85
2023-03-15T15:55:44.248Z,3.80
2023-03-15T15:58:12.490Z,3.55
2023-03-15T16:00:39.181Z,3.67
2023-03-15T16:03:17.540Z,4.15
2023-03-15T16:05:44.588Z,2.90
2023-03-15T16:08:22.917Z,3.30
2023-03-15T16:10:49.781Z,3.05
2023-03-15T16:13:16.555Z,2.58
2023-03-15T16:15:43.237Z,3.13
2023-03-15T16:18:11.310Z,2.50
2023-03-15T16:20:42.596Z,2.45
2023-03-15T16:23:19.059Z,4.00
2023-03-15T16:25:48.084Z,1.92
2023-03-15T16:28:14.704Z,2.60
2023-03-15T16:30:41.412Z,3.25
2023-03-15T16:33:17.742Z,3.08
2023-03-15T16:35:45.252Z,4.10
2023-03-15T16:38:16.075Z,2.38
2023-03-15T16:40:45.137Z,3.13
2023-03-15T16:43:13.766Z,2.65
2023-03-15T16:45:40.940Z,3.22
2023-03-15T16:48:07.583Z,2.60
2023-03-15T16:50:35.113Z,3.90
2023-03-15T16:53:05.345Z,3.95
2023-03-15T16:55:35.747Z,5.43
2023-03-15T16:58:09.902Z,3.22
2023-03-15T17:00:37.020Z,2.60
2023-03-15T17:03:04.493Z,2.08
2023-03-15T17:05:32.693Z,4.35
2023-03-15T17:08:00.717Z,1.98
2023-03-15T17:10:30.843Z,2.90
2023-03-15T17:13:00.182Z,3.10
2023-03-15T17:15:28.293Z,2.47
2023-03-15T17:17:59.023Z,3.45
2023-03-15T17:20:28.335Z,2.85
2023-03-15T17:23:04.445Z,4.78
2023-03-15T17:25:31.493Z,4.78
2023-03-15T17:27:58.100Z,4.43
2023-03-15T17:30:27.182Z,2.83
2023-03-15T17:32:54.560Z,2.10
2023-03-15T17:35:23.714Z,3.35
2023-03-15T17:37:51.430Z,2.78
2023-03-15T17:40:27.189Z,2.50
2023-03-15T17:42:59.535Z,3.85
2023-03-15T17:45:29.631Z,2.70
2023-03-15T17:47:56.703Z,3.20
2023-03-15T17:50:27.306Z,2.30
2023-03-15T17:53:00.053Z,3.30
2023-03-15T17:55:28.547Z,2.85
2023-03-15T17:57:55.802Z,4.13
2023-03-15T18:00:23.882Z,5.38
2023-03-15T18:02:56.397Z,5.22
2023-03-15T18:05:27.967Z,5.55
2023-03-15T18:07:59.582Z,6.68
2023-03-15T18:10:31.414Z,7.65
2023-03-15T18:12:58.030Z,4.97
2023-03-15T18:15:24.688Z,3.97
2023-03-15T18:17:51.353Z,4.53
2023-03-15T18:20:19.388Z,4.63
2023-03-15T18:22:46.043Z,4.18
2023-03-15T18:25:33.221Z,4.53
2023-03-15T18:28:00.393Z,4.25
2023-03-15T18:30:29.457Z,4.95
2023-03-15T18:32:56.711Z,3.63
2023-03-15T18:35:29.537Z,3.58
2023-03-15T18:37:57.421Z,3.80
2023-03-15T18:40:26.670Z,3.75
2023-03-15T18:42:55.174Z,3.67
2023-03-15T18:45:28.166Z,4.85
2023-03-15T18:47:55.314Z,3.45
2023-03-15T18:50:22.733Z,3.03
2023-03-15T18:52:49.852Z,3.30
2023-03-15T18:55:19.008Z,4.47
2023-03-15T18:57:46.388Z,3.53
2023-03-15T19:00:16.896Z,2.38
2023-03-15T19:02:45.908Z,3.42
2023-03-15T19:05:14.032Z,3.42
2023-03-15T19:07:41.584Z,3.38
2023-03-15T19:10:13.926Z,3.25
2023-03-15T19:12:41.375Z,3.67
2023-03-15T19:15:15.021Z,6.88
2023-03-15T19:17:42.177Z,3.00
2023-03-15T19:20:11.962Z,3.60
2023-03-15T19:22:39.732Z,3.28
2023-03-15T19:25:06.718Z,3.47
2023-03-15T19:27:33.687Z,3.50
2023-03-15T19:30:00.282Z,3.08
2023-03-15T19:32:29.350Z,5.32
2023-03-15T19:34:56.929Z,4.10
2023-03-15T19:37:24.176Z,5.60
2023-03-15T19:39:50.897Z,4.72
2023-03-15T19:42:17.684Z,3.25
2023-03-15T19:44:44.420Z,4.03
2023-03-15T19:47:11.054Z,4.05
2023-03-15T19:49:37.831Z,4.22
2023-03-15T19:52:04.488Z,4.78
2023-03-15T19:54:33.894Z,4.95
2023-03-15T19:57:01.114Z,4.40
2023-03-15T19:59:27.844Z,3.58
2023-03-15T20:01:54.560Z,4.20
2023-03-15T20:04:21.322Z,4.72
2023-03-15T20:06:48.013Z,3.67
2023-03-15T20:09:14.599Z,5.63
2023-03-15T20:11:41.221Z,4.10
2023-03-15T20:14:07.846Z,4.78
2023-03-15T20:16:34.486Z,3.55
2023-03-15T20:19:01.112Z,4.35
2023-03-15T20:21:29.353Z,4.03
2023-03-15T20:23:56.067Z,5.55
2023-03-15T20:26:23.835Z,7.60
2023-03-15T20:28:50.676Z,7.65
2023-03-15T20:31:19.127Z,8.88
2023-03-15T20:33:49.224Z,8.95
2023-03-15T20:36:17.405Z,10.80
2023-03-15T20:38:45.348Z,9.18
2023-03-15T20:41:13.926Z,10.18
2023-03-15T20:43:41.808Z,12.95
2023-03-15T20:46:09.777Z,13.05
2023-03-15T20:48:37.416Z,12.85
2023-03-15T20:51:05.381Z,14.48
2023-03-15T20:53:34.402Z,13.65
2023-03-15T20:56:01.645Z,11.02
2023-03-15T20:58:28.572Z,9.38
2023-03-15T21:01:03.361Z,13.75
2023-03-15T21:03:33.124Z,11.07
2023-03-15T21:06:00.555Z,10.07
2023-03-15T21:08:27.346Z,12.27
2023-03-15T21:10:54.487Z,12.48
2023-03-15T21:13:21.390Z,11.75
2023-03-15T21:15:48.044Z,10.52
2023-03-15T21:18:16.751Z,8.48
2023-03-15T21:20:44.280Z,9.00
2023-03-15T21:23:11.521Z,9.80
2023-03-15T21:25:38.609Z,12.57
2023-03-15T21:28:05.643Z,9.50
2023-03-15T21:30:33.016Z,10.80
2023-03-15T21:32:59.985Z,9.25
2023-03-15T21:35:26.732Z,7.07
2023-03-15T21:37:53.431Z,8.27
2023-03-15T21:40:20.144Z,8.70
2023-03-15T21:42:47.827Z,8.98
2023-03-15T21:45:14.757Z,8.82
2023-03-15T21:47:41.500Z,7.72
2023-03-15T21:50:09.351Z,7.22
2023-03-15T21:52:35.975Z,7.68
2023-03-15T21:55:02.652Z,7.28
2023-03-15T21:57:29.454Z,7.57
2023-03-15T21:59:56.079Z,9.95
2023-03-15T22:02:22.682Z,7.45
2023-03-15T22:04:49.593Z,8.10
2023-03-15T22:07:16.222Z,7.50
2023-03-15T22:09:43.322Z,7.72
2023-03-15T22:12:10.441Z,6.60
2023-03-15T22:14:37.121Z,6.63
2023-03-15T22:17:04.726Z,8.07
2023-03-15T22:19:32.076Z,7.38
2023-03-15T22:21:58.992Z,10.45
2023-03-15T22:24:25.594Z,8.05
2023-03-15T22:26:53.130Z,8.20
2023-03-15T22:29:19.897Z,8.90
2023-03-15T22:31:46.545Z,9.30
2023-03-15T22:34:13.211Z,8.90
2023-03-15T22:36:39.850Z,8.90
2023-03-15T22:39:07.628Z,9.60
2023-03-15T22:41:34.365Z,8.02
2023-03-15T22:44:01.458Z,8.02
2023-03-15T22:46:28.571Z,7.72
2023-03-15T22:48:55.296Z,8.00
2023-03-15T22:51:21.988Z,9.98
2023-03-15T22:53:48.580Z,10.20
2023-03-15T22:56:15.855Z,8.30
2023-03-15T22:58:42.929Z,12.10
2023-03-15T23:01:10.263Z,8.50
2023-03-15T23:03:36.999Z,13.82
2023-03-15T23:06:04.632Z,11.00
2023-03-15T23:08:31.258Z,9.15
2023-03-15T23:10:58.566Z,10.63
2023-03-15T23:13:25.352Z,11.27
2023-03-15T23:15:52.027Z,9.98
2023-03-15T23:18:18.662Z,9.75
2023-03-15T23:20:45.325Z,13.00
2023-03-15T23:23:11.995Z,12.15
2023-03-15T23:25:39.451Z,9.80
2023-03-15T23:28:07.340Z,9.48
2023-03-15T23:30:35.994Z,9.82
2023-03-15T23:33:03.677Z,9.82
2023-03-15T23:35:31.687Z,9.00
2023-03-15T23:37:58.415Z,8.30
2023-03-15T23:40:25.879Z,10.43
2023-03-15T23:42:58.878Z,11.40
2023-03-15T23:45:29.976Z,12.48
2023-03-15T23:47:56.915Z,16.38
2023-03-15T23:50:27.525Z,13.60
2023-03-15T23:52:55.930Z,15.50
2023-03-15T23:55:23.827Z,21.50
2023-03-15T23:57:50.815Z,14.93
